createdAt,value
2023-02-22T00:00:48.341Z,81.90
2023-02-22T00:03:18.030Z,75.20
2023-02-22T00:05:47.848Z,75.40
2023-02-22T00:08:15.748Z,79.80
2023-02-22T00:10:43.186Z,90.00
2023-02-22T00:13:13.573Z,84.70
2023-02-22T00:15:41.631Z,86.50
2023-02-22T00:18:10.638Z,78.70
2023-02-22T00:20:40.906Z,77.50
2023-02-22T00:23:10.475Z,89.60
2023-02-22T00:25:37.183Z,77.40
2023-02-22T00:28:05.116Z,79.40
2023-02-22T00:30:33.772Z,83.10
2023-02-22T00:33:00.992Z,79.50
2023-02-22T00:35:30.128Z,81.30
2023-02-22T00:38:02.086Z,77.80
2023-02-22T00:40:34.560Z,83.00
2023-02-22T00:43:04.254Z,86.70
2023-02-22T00:45:33.629Z,75.20
2023-02-22T00:48:01.960Z,85.50
2023-02-22T00:50:30.509Z,75.70
2023-02-22T00:52:58.824Z,85.60
2023-02-22T00:55:28.508Z,85.20
2023-02-22T00:57:56.302Z,69.60
2023-02-22T01:00:31.434Z,78.40
2023-02-22T01:02:58.091Z,76.70
2023-02-22T01:05:28.360Z,73.30
2023-02-22T01:07:56.582Z,85.50
2023-02-22T01:10:27.542Z,78.40
2023-02-22T01:12:54.719Z,75.50
2023-02-22T01:15:23.565Z,82.80
2023-02-22T01:17:53.753Z,79.80
2023-02-22T01:20:23.016Z,75.50
2023-02-22T01:22:51.489Z,79.30
2023-02-22T01:25:21.287Z,83.80
2023-02-22T01:27:50.288Z,78.30
2023-02-22T01:30:22.227Z,72.10
2023-02-22T01:32:51.590Z,80.40
2023-02-22T01:35:24.378Z,86.20
2023-02-22T01:37:51.286Z,81.10
2023-02-22T01:40:28.520Z,85.90
2023-02-22T01:42:58.786Z,87.30
2023-02-22T01:45:34.462Z,87.20
2023-02-22T01:48:06.194Z,80.30
2023-02-22T01:50:37.315Z,66.30
2023-02-22T01:53:05.488Z,88.50
2023-02-22T01:55:35.542Z,74.30
2023-02-22T01:58:05.156Z,71.10
2023-02-22T02:00:32.506Z,67.40
2023-02-22T02:03:08.361Z,84.40
2023-02-22T02:05:39.246Z,87.40
2023-02-22T02:08:17.323Z,89.70
2023-02-22T02:13:11.344Z,81.90
2023-02-22T02:15:38.105Z,83.00
2023-02-22T02:18:07.912Z,79.50
2023-02-22T02:21:16.195Z,82.00
2023-02-22T02:24:09.217Z,74.30
2023-02-22T02:27:01.010Z,73.10
2023-02-22T02:30:19.388Z,63.20
2023-02-22T02:33:05.339Z,90.80
2023-02-22T02:35:39.372Z,87.20
2023-02-22T02:38:22.225Z,82.10
2023-02-22T02:41:18.809Z,74.00
2023-02-22T02:44:10.318Z,85.50
2023-02-22T02:46:46.941Z,80.20
2023-02-22T02:49:20.552Z,83.80
2023-02-22T02:51:52.438Z,83.70
2023-02-22T02:54:22.487Z,76.70
2023-02-22T02:56:52.332Z,76.50
2023-02-22T02:59:33.501Z,76.30
2023-02-22T03:02:26.538Z,71.70
2023-02-22T03:05:25.955Z,75.90
2023-02-22T03:08:00.699Z,79.00
2023-02-22T03:10:33.345Z,72.20
2023-02-22T03:13:14.618Z,81.00
2023-02-22T03:15:51.520Z,82.80
2023-02-22T03:18:29.171Z,87.50
2023-02-22T03:21:24.229Z,82.50
2023-02-22T03:24:21.042Z,89.20
2023-02-22T03:27:21.842Z,83.00
2023-02-22T03:29:54.219Z,79.60
2023-02-22T03:32:27.864Z,75.50
2023-02-22T03:35:02.355Z,73.70
2023-02-22T03:37:34.221Z,78.20
2023-02-22T03:40:14.106Z,81.70
2023-02-22T03:42:51.215Z,82.20
2023-02-22T03:45:24.416Z,82.60
2023-02-22T03:48:01.833Z,89.60
2023-02-22T03:50:35.816Z,80.00
2023-02-22T03:53:04.462Z,86.70
2023-02-22T03:55:32.966Z,86.50
2023-02-22T03:58:05.049Z,88.10
2023-02-22T04:00:33.940Z,74.80
2023-02-22T04:03:01.852Z,69.70
2023-02-22T04:05:28.568Z,74.10
2023-02-22T04:07:57.735Z,73.90
2023-02-22T04:10:25.431Z,74.40
2023-02-22T04:12:55.645Z,79.90
2023-02-22T04:15:24.119Z,79.50
2023-02-22T04:17:55.133Z,83.10
2023-02-22T04:20:25.578Z,84.70
2023-02-22T04:22:58.002Z,77.80
2023-02-22T04:25:24.875Z,81.60
2023-02-22T04:27:52.783Z,82.90
2023-02-22T04:30:24.613Z,72.70
2023-02-22T04:32:51.391Z,78.20
2023-02-22T04:35:20.998Z,77.60
2023-02-22T04:37:47.858Z,81.10
2023-02-22T04:40:18.799Z,82.20
2023-02-22T04:42:47.053Z,73.00
2023-02-22T04:45:14.212Z,73.40
2023-02-22T04:47:41.058Z,77.40
2023-02-22T04:50:11.178Z,77.00
2023-02-22T04:52:37.876Z,77.20
2023-02-22T04:55:07.591Z,75.30
2023-02-22T04:57:35.813Z,79.20
2023-02-22T05:00:02.572Z,72.80
2023-02-22T05:02:31.532Z,69.60
2023-02-22T05:04:58.150Z,80.60
2023-02-22T05:07:24.930Z,76.30
2023-02-22T05:09:51.642Z,79.20
2023-02-22T05:12:18.248Z,78.20
2023-02-22T05:14:45.050Z,79.80
2023-02-22T05:17:11.703Z,71.50
2023-02-22T05:19:38.724Z,70.80
2023-02-22T05:22:05.850Z,74.00
2023-02-22T05:24:32.742Z,76.30
2023-02-22T05:26:59.426Z,80.50
2023-02-22T05:29:26.430Z,77.80
2023-02-22T05:31:53.181Z,81.90
2023-02-22T05:34:19.903Z,84.00
2023-02-22T05:36:46.623Z,77.10
2023-02-22T05:39:13.335Z,75.30
2023-02-22T05:41:39.951Z,91.90
2023-02-22T05:44:06.620Z,78.70
2023-02-22T05:46:33.312Z,79.30
2023-02-22T05:49:00.173Z,74.30
2023-02-22T05:51:26.768Z,81.30
2023-02-22T05:53:53.402Z,77.30
2023-02-22T05:56:24.686Z,78.20
2023-02-22T05:58:51.660Z,81.20
2023-02-22T06:01:18.995Z,91.60
2023-02-22T06:03:49.998Z,88.60
2023-02-22T06:06:19.223Z,84.90
2023-02-22T06:08:46.945Z,90.50
2023-02-22T06:11:13.869Z,80.10
2023-02-22T06:13:41.408Z,74.80
2023-02-22T06:16:08.506Z,78.90
2023-02-22T06:18:35.320Z,77.70
2023-02-22T06:21:02.234Z,81.10
2023-02-22T06:23:28.968Z,76.70
2023-02-22T06:25:55.645Z,79.30
2023-02-22T06:28:23.831Z,85.90
2023-02-22T06:30:50.665Z,82.90
2023-02-22T06:33:17.248Z,83.10
2023-02-22T06:35:45.262Z,81.80
2023-02-22T06:38:11.848Z,84.40
2023-02-22T06:40:38.422Z,84.00
2023-02-22T06:43:05.073Z,80.80
2023-02-22T06:45:31.803Z,85.60
2023-02-22T06:47:58.460Z,86.50
2023-02-22T06:50:28.968Z,84.30
2023-02-22T06:52:56.757Z,81.60
2023-02-22T06:55:26.202Z,91.20
2023-02-22T06:57:53.410Z,87.70
2023-02-22T07:00:24.541Z,87.50
2023-02-22T07:02:51.946Z,82.40
2023-02-22T07:05:23.624Z,90.80
2023-02-22T07:07:55.436Z,88.80
2023-02-22T07:10:27.822Z,88.70
2023-02-22T07:12:55.034Z,83.60
2023-02-22T07:15:24.156Z,71.50
2023-02-22T07:17:51.932Z,91.80
2023-02-22T07:20:20.791Z,90.70
2023-02-22T07:22:48.405Z,85.00
2023-02-22T07:25:15.260Z,88.00
2023-02-22T07:27:43.116Z,84.10
2023-02-22T07:30:18.923Z,92.30
2023-02-22T07:32:47.341Z,78.70
2023-02-22T07:35:27.338Z,87.30
2023-02-22T07:37:55.945Z,81.90
2023-02-22T07:40:24.379Z,86.80
2023-02-22T07:43:21.891Z,84.80
2023-02-22T07:45:50.302Z,80.90
2023-02-22T07:48:18.312Z,78.80
2023-02-22T07:50:45.679Z,91.80
2023-02-22T07:53:15.398Z,81.40
2023-02-22T07:55:45.160Z,83.00
2023-02-22T07:58:15.861Z,80.10
2023-02-22T08:00:47.346Z,83.10
2023-02-22T08:03:16.394Z,82.00
2023-02-22T08:05:46.993Z,95.30
2023-02-22T08:08:19.748Z,82.40
2023-02-22T08:10:47.427Z,90.50
2023-02-22T08:13:14.927Z,88.40
2023-02-22T08:15:44.384Z,101.50
2023-02-22T08:18:18.496Z,89.40
2023-02-22T08:20:46.993Z,73.70
2023-02-22T08:23:15.475Z,76.70
2023-02-22T08:25:42.249Z,83.40
2023-02-22T08:28:15.366Z,88.80
2023-02-22T08:30:43.894Z,89.40
2023-02-22T08:33:14.567Z,80.30
2023-02-22T08:35:41.879Z,88.30
2023-02-22T08:38:15.380Z,87.50
2023-02-22T08:40:42.124Z,77.30
2023-02-22T08:43:08.748Z,75.00
2023-02-22T08:45:35.554Z,66.80
2023-02-22T08:48:02.737Z,60.70
2023-02-22T08:50:33.729Z,60.60
2023-02-22T08:53:03.069Z,68.10
2023-02-22T08:55:32.726Z,88.70
2023-02-22T08:58:02.962Z,101.70
2023-02-22T09:00:35.396Z,87.50
2023-02-22T09:03:15.307Z,100.30
2023-02-22T09:05:43.449Z,82.60
2023-02-22T09:08:10.580Z,93.90
2023-02-22T09:10:37.595Z,98.20
2023-02-22T09:13:04.948Z,71.10
2023-02-22T09:15:33.042Z,74.00
2023-02-22T09:18:00.164Z,83.00
2023-02-22T09:20:28.123Z,81.20
2023-02-22T09:22:55.369Z,71.80
2023-02-22T09:25:23.410Z,82.10
2023-02-22T09:27:54.537Z,87.40
2023-02-22T09:30:33.514Z,77.40
2023-02-22T09:33:10.173Z,61.80
2023-02-22T09:35:37.950Z,62.20
2023-02-22T09:38:08.479Z,68.30
2023-02-22T09:40:45.164Z,52.90
2023-02-22T09:43:50.754Z,63.90
2023-02-22T09:46:34.746Z,58.70
2023-02-22T09:51:58.761Z,63.00
2023-02-22T09:54:45.413Z,44.40
2023-02-22T09:57:32.056Z,69.50
2023-02-22T10:00:15.555Z,72.40
2023-02-22T10:03:08.293Z,51.00
2023-02-22T10:05:41.958Z,71.10
2023-02-22T10:08:14.718Z,70.10
2023-02-22T10:10:46.200Z,60.80
2023-02-22T10:13:31.609Z,51.50
2023-02-22T10:16:25.711Z,56.60
2023-02-22T10:19:08.481Z,61.00
2023-02-22T10:21:47.514Z,73.40
2023-02-22T10:24:32.620Z,72.80
2023-02-22T10:27:00.972Z,64.30
2023-02-22T10:29:53.259Z,48.10
2023-02-22T10:32:29.185Z,57.80
2023-02-22T10:35:03.369Z,50.10
2023-02-22T10:37:32.945Z,70.50
2023-02-22T10:40:23.093Z,67.20
2023-02-22T10:42:50.332Z,77.90
2023-02-22T10:45:25.856Z,57.30
2023-02-22T10:47:56.266Z,58.70
2023-02-22T10:50:23.017Z,61.50
2023-02-22T10:52:49.949Z,66.90
2023-02-22T10:55:17.329Z,63.80
2023-02-22T10:57:50.865Z,56.80
2023-02-22T11:00:30.503Z,73.50
2023-02-22T11:02:58.322Z,50.20
2023-02-22T11:05:38.665Z,49.70
2023-02-22T11:08:24.707Z,50.10
2023-02-22T11:11:01.962Z,53.90
2023-02-22T11:13:38.068Z,53.50
2023-02-22T11:16:20.158Z,53.40
2023-02-22T11:18:49.677Z,67.00
2023-02-22T11:21:23.102Z,60.90
2023-02-22T11:24:01.130Z,60.60
2023-02-22T11:28:56.669Z,64.70
2023-02-22T11:31:27.856Z,66.90
2023-02-22T11:36:41.068Z,61.50
2023-02-22T11:39:27.055Z,39.40
2023-02-22T11:41:56.703Z,65.90
2023-02-22T11:44:32.592Z,43.20
2023-02-22T11:47:07.215Z,66.10
2023-02-22T11:49:38.360Z,63.70
2023-02-22T11:52:05.074Z,63.10
2023-02-22T11:54:52.816Z,62.30
2023-02-22T11:57:31.724Z,57.50
2023-02-22T12:00:15.494Z,55.90
2023-02-22T12:02:57.340Z,44.60
2023-02-22T12:05:59.844Z,61.00
2023-02-22T12:08:39.117Z,75.40
2023-02-22T12:11:20.677Z,59.40
2023-02-22T12:14:35.989Z,61.40
2023-02-22T12:17:09.045Z,64.30
2023-02-22T12:19:50.467Z,55.90
2023-02-22T12:22:25.720Z,66.90
2023-02-22T12:25:09.696Z,73.10
2023-02-22T12:27:43.595Z,68.60
2023-02-22T12:30:29.335Z,47.20
2023-02-22T12:33:00.203Z,71.80
2023-02-22T12:35:30.200Z,65.00
2023-02-22T12:38:04.747Z,62.70
2023-02-22T12:40:47.630Z,69.80
2023-02-22T12:43:23.403Z,64.90
2023-02-22T12:46:27.226Z,76.90
2023-02-22T12:49:20.934Z,67.60
2023-02-22T12:52:21.983Z,59.70
2023-02-22T12:54:59.534Z,64.20
2023-02-22T12:57:42.428Z,73.50
2023-02-22T13:00:23.320Z,73.30
2023-02-22T13:03:07.046Z,61.30
2023-02-22T13:05:43.438Z,60.30
2023-02-22T13:08:34.133Z,72.60
2023-02-22T13:11:04.769Z,74.40
2023-02-22T13:13:47.389Z,46.50
2023-02-22T13:16:33.723Z,83.30
2023-02-22T13:19:38.598Z,49.40
2023-02-22T13:22:21.134Z,58.80
2023-02-22T13:25:00.084Z,69.20
2023-02-22T13:27:32.767Z,71.10
2023-02-22T13:30:01.880Z,64.60
2023-02-22T13:32:48.024Z,55.10
2023-02-22T13:35:42.531Z,69.20
2023-02-22T13:38:28.502Z,56.30
2023-02-22T13:41:10.489Z,59.50
2023-02-22T13:43:52.317Z,68.90
2023-02-22T13:46:40.307Z,68.30
2023-02-22T13:49:26.030Z,66.30
2023-02-22T13:51:59.014Z,56.00
2023-02-22T13:54:37.962Z,59.10
2023-02-22T13:57:17.157Z,64.80
2023-02-22T13:59:47.444Z,68.10
2023-02-22T14:02:52.757Z,60.20
2023-02-22T14:05:49.912Z,62.10
2023-02-22T14:08:19.801Z,62.10
2023-02-22T14:10:59.283Z,72.10
2023-02-22T14:13:30.861Z,62.40
2023-02-22T14:16:00.605Z,76.00
2023-02-22T14:18:42.970Z,75.30
2023-02-22T14:21:11.962Z,69.20
2023-02-22T14:23:41.479Z,69.80
2023-02-22T14:26:18.892Z,74.30
2023-02-22T14:28:50.981Z,53.50
2023-02-22T14:31:34.944Z,62.00
2023-02-22T14:34:08.354Z,56.80
2023-02-22T14:36:58.457Z,69.00
2023-02-22T14:39:43.650Z,74.00
2023-02-22T14:42:17.821Z,60.90
2023-02-22T14:45:12.639Z,55.50
2023-02-22T14:48:16.528Z,53.90
2023-02-22T14:51:21.453Z,69.20
2023-02-22T14:53:52.953Z,41.00
2023-02-22T14:56:23.603Z,64.50
2023-02-22T14:59:07.915Z,76.60
2023-02-22T15:01:50.857Z,61.80
2023-02-22T15:04:28.959Z,63.20
2023-02-22T15:07:00.955Z,67.00
2023-02-22T15:09:37.205Z,60.20
2023-02-22T15:12:03.864Z,60.90
2023-02-22T15:14:37.723Z,69.40
2023-02-22T15:17:10.327Z,64.50
2023-02-22T15:19:40.223Z,62.20
2023-02-22T15:22:20.820Z,74.30
2023-02-22T15:24:58.911Z,70.50
2023-02-22T15:27:26.243Z,62.90
2023-02-22T15:30:01.238Z,44.80
2023-02-22T15:32:50.026Z,68.20
2023-02-22T15:35:29.846Z,61.40
2023-02-22T15:38:02.628Z,59.50
2023-02-22T15:40:33.319Z,73.10
2023-02-22T15:43:11.049Z,62.40
2023-02-22T15:45:43.297Z,57.40
2023-02-22T15:48:11.755Z,68.10
2023-02-22T15:50:39.245Z,64.40
2023-02-22T15:53:18.296Z,60.70
2023-02-22T15:55:49.842Z,63.00
2023-02-22T15:58:16.418Z,65.30
2023-02-22T16:00:46.923Z,67.60
2023-02-22T16:03:16.837Z,66.80
2023-02-22T16:05:56.828Z,66.30
2023-02-22T16:08:29.459Z,68.60
2023-02-22T16:11:04.068Z,60.80
2023-02-22T16:13:37.217Z,64.60
2023-02-22T16:16:22.534Z,55.50
2023-02-22T16:18:51.091Z,69.10
2023-02-22T16:21:23.713Z,70.10
2023-02-22T16:24:06.974Z,59.80
2023-02-22T16:26:41.470Z,64.80
2023-02-22T16:29:09.707Z,65.10
2023-02-22T16:31:39.732Z,68.10
2023-02-22T16:34:08.402Z,67.90
2023-02-22T16:36:40.057Z,68.10
2023-02-22T16:39:09.069Z,62.30
2023-02-22T16:41:35.975Z,62.40
2023-02-22T16:44:03.055Z,68.30
2023-02-22T16:46:29.879Z,72.40
2023-02-22T16:48:59.649Z,68.10
2023-02-22T16:51:28.657Z,77.20
2023-02-22T16:53:56.405Z,59.70
2023-02-22T16:56:30.836Z,75.80
2023-02-22T16:59:01.320Z,69.00
2023-02-22T17:01:28.071Z,73.90
2023-02-22T17:03:54.903Z,72.10
2023-02-22T17:06:21.717Z,75.70
2023-02-22T17:08:51.989Z,70.50
2023-02-22T17:11:19.204Z,69.90
2023-02-22T17:13:47.269Z,73.00
2023-02-22T17:16:15.464Z,72.50
2023-02-22T17:18:46.141Z,78.50
2023-02-22T17:21:13.012Z,92.60
2023-02-22T17:23:39.976Z,70.10
2023-02-22T17:26:06.550Z,72.50
2023-02-22T17:28:33.192Z,71.90
2023-02-22T17:31:01.988Z,78.60
2023-02-22T17:33:32.998Z,72.90
2023-02-22T17:36:04.940Z,78.70
2023-02-22T17:38:31.834Z,72.20
2023-02-22T17:41:03.563Z,75.90
2023-02-22T17:43:30.156Z,82.70
2023-02-22T17:45:57.329Z,73.80
2023-02-22T17:48:24.575Z,76.80
2023-02-22T17:50:52.235Z,70.60
2023-02-22T17:53:22.816Z,78.60
2023-02-22T17:55:50.473Z,76.40
2023-02-22T17:58:17.517Z,73.70
2023-02-22T18:00:50.045Z,70.40
2023-02-22T18:03:25.424Z,67.80
2023-02-22T18:05:57.596Z,65.40
2023-02-22T18:08:29.262Z,71.90
2023-02-22T18:11:02.180Z,73.30
2023-02-22T18:13:28.956Z,67.90
2023-02-22T18:16:05.081Z,69.60
2023-02-22T18:18:35.896Z,74.10
2023-02-22T18:21:03.836Z,75.30
2023-02-22T18:23:31.629Z,71.10
2023-02-22T18:26:10.564Z,79.80
2023-02-22T18:28:40.774Z,76.90
2023-02-22T18:31:15.967Z,81.40
2023-02-22T18:33:44.260Z,78.60
2023-02-22T18:36:15.578Z,72.70
2023-02-22T18:38:43.682Z,73.70
2023-02-22T18:41:16.074Z,81.80
2023-02-22T18:43:43.594Z,75.30
2023-02-22T18:46:14.544Z,79.50
2023-02-22T18:48:41.931Z,75.60
2023-02-22T18:51:13.891Z,76.70
2023-02-22T18:56:14.230Z,81.30
2023-02-22T18:58:43.347Z,78.70
2023-02-22T19:01:16.211Z,73.70
2023-02-22T19:03:43.105Z,77.80
2023-02-22T19:06:10.402Z,79.50
2023-02-22T19:08:42.336Z,72.10
2023-02-22T19:13:38.370Z,62.90
2023-02-22T19:16:07.431Z,79.70
2023-02-22T19:18:34.820Z,80.90
2023-02-22T19:21:04.289Z,67.90
2023-02-22T19:23:34.464Z,70.30
2023-02-22T19:26:03.954Z,77.60
2023-02-22T19:28:36.692Z,79.40
2023-02-22T19:31:11.644Z,74.30
2023-02-22T19:33:38.521Z,80.40
2023-02-22T19:36:05.533Z,77.40
2023-02-22T19:38:32.305Z,73.50
2023-02-22T19:40:58.921Z,78.30
2023-02-22T19:43:25.566Z,71.80
2023-02-22T19:45:52.186Z,69.60
2023-02-22T19:48:19.170Z,71.90
2023-02-22T19:50:49.552Z,73.20
2023-02-22T19:53:19.619Z,70.80
2023-02-22T19:55:46.195Z,76.50
2023-02-22T19:58:15.331Z,70.20
2023-02-22T20:00:42.103Z,82.50
2023-02-22T20:03:13.411Z,79.70
2023-02-22T20:05:41.527Z,82.60
2023-02-22T20:08:08.786Z,80.90
2023-02-22T20:10:35.627Z,70.10
2023-02-22T20:13:03.211Z,69.60
2023-02-22T20:15:30.099Z,76.60
2023-02-22T20:17:57.968Z,68.30
2023-02-22T20:20:25.749Z,75.90
2023-02-22T20:22:53.534Z,68.50
2023-02-22T20:25:20.530Z,70.30
2023-02-22T20:27:48.681Z,76.60
2023-02-22T20:30:18.266Z,78.30
2023-02-22T20:32:46.072Z,82.00
2023-02-22T20:35:13.603Z,83.40
2023-02-22T20:37:43.918Z,81.10
2023-02-22T20:40:11.091Z,79.70
2023-02-22T20:42:39.352Z,82.70
2023-02-22T20:45:11.902Z,78.50
2023-02-22T20:47:39.082Z,82.50
2023-02-22T20:50:07.387Z,80.20
2023-02-22T20:52:35.843Z,74.30
2023-02-22T20:55:04.402Z,74.60
2023-02-22T20:57:31.169Z,82.30
2023-02-22T20:59:57.832Z,74.60
2023-02-22T21:02:24.551Z,74.50
2023-02-22T21:04:57.753Z,77.70
2023-02-22T21:07:24.711Z,81.50
2023-02-22T21:09:53.002Z,77.90
2023-02-22T21:12:19.920Z,81.90
2023-02-22T21:14:47.584Z,80.10
2023-02-22T21:17:14.739Z,82.90
2023-02-22T21:19:42.299Z,76.20
2023-02-22T21:22:09.965Z,80.90
2023-02-22T21:24:37.846Z,76.90
2023-02-22T21:27:07.049Z,81.70
2023-02-22T21:29:35.478Z,66.10
2023-02-22T21:32:02.874Z,81.40
2023-02-22T21:34:29.902Z,70.90
2023-02-22T21:36:56.869Z,86.40
2023-02-22T21:39:28.610Z,87.30
2023-02-22T21:42:00.584Z,88.20
2023-02-22T21:44:28.237Z,88.50
2023-02-22T21:46:54.937Z,86.50
2023-02-22T21:49:25.133Z,74.00
2023-02-22T21:51:52.643Z,74.70
2023-02-22T21:54:20.151Z,82.80
2023-02-22T21:56:46.991Z,85.90
2023-02-22T21:59:18.905Z,85.10
2023-02-22T22:01:52.555Z,82.80
2023-02-22T22:04:22.474Z,86.40
2023-02-22T22:06:51.648Z,73.90
2023-02-22T22:09:19.907Z,78.40
2023-02-22T22:11:54.703Z,86.00
2023-02-22T22:14:23.580Z,81.00
2023-02-22T22:16:52.644Z,86.40
2023-02-22T22:19:20.503Z,82.60
2023-02-22T22:21:48.839Z,71.40
2023-02-22T22:24:16.068Z,73.30
2023-02-22T22:26:44.079Z,77.30
2023-02-22T22:29:11.626Z,73.40
2023-02-22T22:31:38.865Z,70.00
2023-02-22T22:34:06.178Z,79.20
2023-02-22T22:36:34.493Z,70.40
2023-02-22T22:39:01.237Z,70.20
2023-02-22T22:41:28.344Z,76.50
2023-02-22T22:43:55.748Z,78.90
2023-02-22T22:46:23.073Z,79.20
2023-02-22T22:48:49.945Z,78.10
2023-02-22T22:51:22.061Z,71.30
2023-02-22T22:53:50.582Z,76.50
2023-02-22T22:56:20.505Z,72.40
2023-02-22T22:58:53.695Z,63.20
2023-02-22T23:01:34.257Z,62.90
2023-02-22T23:04:07.967Z,66.00
2023-02-22T23:06:46.391Z,64.70
2023-02-22T23:09:21.924Z,58.20
2023-02-22T23:11:53.383Z,59.30
2023-02-22T23:14:24.261Z,57.40
2023-02-22T23:16:55.371Z,60.50
2023-02-22T23:19:21.966Z,69.40
2023-02-22T23:21:49.788Z,65.40
2023-02-22T23:24:20.025Z,66.60
2023-02-22T23:26:49.826Z,70.30
2023-02-22T23:29:18.855Z,64.10
2023-02-22T23:31:48.467Z,68.60
2023-02-22T23:34:21.350Z,68.30
2023-02-22T23:36:49.344Z,68.70
2023-02-22T23:39:20.713Z,63.20
2023-02-22T23:42:00.174Z,59.70
2023-02-22T23:44:28.039Z,66.80
2023-02-22T23:46:56.823Z,63.00
2023-02-22T23:49:27.262Z,59.40
2023-02-22T23:51:54.216Z,57.50
2023-02-22T23:54:21.607Z,60.90
2023-02-22T23:57:02.392Z,56.50
2023-02-22T23:59:32.769Z,54.80
